BRU weather

Brussels Airport
Brussels, Brussels-Capital Region, Belgium

Public forecast

Using degrees Celsius for public forecast. Weather courtesy of forecast.io.

METAR (pilot weather report)

Retrieved 2017/11/24 13:20 UTC (2 minutes ago):

EBBR 241320Z 27005KT 240V300 9999 SCT023 10/06 Q1011 NOSIG

TAF (pilot weather forecast)

Retrieved 2017/11/24 12:28 UTC (54 minutes ago):

TAF EBBR 241107Z 2412/2518 23006KT 9999 SCT020 TEMPO 2415/2419 4000 SHRA PROB40 2502/2509 0500 FG BKN001